Time;durP1;ratioP1;P1;durP2;ratioP2;P2;SDS_P1;SDS_P2;PMS_P1;PMS_P2;Temp;Humidity;BMP_temperature;BMP_pressure;BME280_temperature;BME280_humidity;BME280_pressure;Samples;Min_cycle;Max_cycle;Signal;HPM_P1;HPM_P2
2021/12/25 00:00:48;;;;;;;;;;;6.50;99.90;;;;;;5090867;28;20182;-74
2021/12/25 00:03:15;;;;;;;;;;;6.50;99.90;;;;;;5090661;28;19974;-74
2021/12/25 00:05:41;;;;;;;;;;;6.60;99.90;;;;;;5091399;28;20285;-76
2021/12/25 00:08:06;;;;;;;;;;;6.60;99.90;;;;;;5091202;28;19908;-73
2021/12/25 00:10:32;;;;;;;;;;;6.60;99.90;;;;;;5090996;28;20254;-73
2021/12/25 00:12:58;;;;;;;;;;;6.70;99.90;;;;;;5090506;28;20323;-74
2021/12/25 00:15:24;;;;;;;;;;;6.70;99.90;;;;;;5090891;28;19919;-74
2021/12/25 00:17:49;;;;;;;;;;;6.80;99.90;;;;;;5090646;28;19912;-75
2021/12/25 00:20:15;;;;;;;;;;;6.70;99.90;;;;;;5090693;28;19931;-73
2021/12/25 00:22:41;;;;;;;;;;;6.80;99.90;;;;;;5090752;28;19909;-73
2021/12/25 00:25:07;;;;;;;;;;;6.80;99.90;;;;;;5090579;28;20262;-73
2021/12/25 00:32:44;;;;;;;;;;;6.80;99.90;;;;;;5090821;28;19958;-74
2021/12/25 00:35:12;;;;;;;;;;;6.80;99.90;;;;;;5090992;28;19951;-74
2021/12/25 00:37:38;;;;;;;;;;;6.80;99.90;;;;;;5094575;28;19909;-74
2021/12/25 00:40:04;;;;;;;;;;;6.80;99.90;;;;;;5094427;28;19962;-75
2021/12/25 00:42:30;;;;;;;;;;;6.80;99.90;;;;;;5094392;28;19934;-73
2021/12/25 00:44:56;;;;;;;;;;;6.70;99.90;;;;;;5094088;28;19908;-75
2021/12/25 00:47:21;;;;;;;;;;;6.60;99.90;;;;;;5094271;28;19916;-73
2021/12/25 00:49:49;;;;;;;;;;;6.60;99.90;;;;;;5092333;28;19956;-73
2021/12/25 00:52:14;;;;;;;;;;;6.60;99.90;;;;;;5094389;28;19908;-73
2021/12/25 00:54:40;;;;;;;;;;;6.60;99.90;;;;;;5093721;28;19912;-75
2021/12/25 00:57:06;;;;;;;;;;;6.60;99.90;;;;;;5094302;28;20003;-73
2021/12/25 00:59:32;;;;;;;;;;;6.50;99.90;;;;;;5094145;28;20175;-73
2021/12/25 01:01:58;;;;;;;;;;;6.50;99.90;;;;;;5094138;28;19908;-73
2021/12/25 01:04:24;;;;;;;;;;;6.50;99.90;;;;;;5093506;28;19955;-73
2021/12/25 01:06:49;;;;;;;;;;;6.50;99.90;;;;;;5094016;28;20393;-73
2021/12/25 01:09:15;;;;;;;;;;;6.40;99.90;;;;;;5093603;28;20418;-74
2021/12/25 01:11:43;;;;;;;;;;;6.40;99.90;;;;;;5093857;28;19918;-75
2021/12/25 01:14:26;;;;;;;;;;;6.40;99.90;;;;;;5093219;28;20288;-73
2021/12/25 01:30:22;;;;;;;;;;;6.40;99.90;;;;;;5093399;28;20288;-74
2021/12/25 01:33:27;;;;;;;;;;;6.50;99.90;;;;;;5089235;28;20349;-73
2021/12/25 01:35:59;;;;;;;;;;;6.40;99.90;;;;;;5087397;28;19912;-74
2021/12/25 01:38:49;;;;;;;;;;;6.40;99.90;;;;;;5093207;28;19909;-75
2021/12/25 01:49:03;;;;;;;;;;;6.50;99.90;;;;;;5092582;28;19919;-74
2021/12/25 01:51:29;;;;;;;;;;;6.50;99.90;;;;;;5093253;28;20113;-73
2021/12/25 01:53:55;;;;;;;;;;;6.40;99.90;;;;;;5092480;28;19909;-73
2021/12/25 01:56:22;;;;;;;;;;;6.30;99.90;;;;;;5093220;28;20387;-74
2021/12/25 01:58:48;;;;;;;;;;;6.30;99.90;;;;;;5093040;28;19915;-75
2021/12/25 02:01:13;;;;;;;;;;;6.30;99.90;;;;;;5092812;28;19912;-73
2021/12/25 02:03:40;;;;;;;;;;;6.30;99.90;;;;;;5073747;28;19912;-74
2021/12/25 02:06:09;;;;;;;;;;;6.40;99.90;;;;;;5074322;28;19939;-74
2021/12/25 02:08:35;;;;;;;;;;;6.40;99.90;;;;;;5092808;28;19912;-74
2021/12/25 02:11:01;;;;;;;;;;;6.60;99.90;;;;;;5092567;28;19962;-73
2021/12/25 02:13:26;;;;;;;;;;;6.60;99.90;;;;;;5092316;28;19947;-74
2021/12/25 02:15:54;;;;;;;;;;;6.60;99.90;;;;;;5092374;28;20034;-74
2021/12/25 02:18:28;;;;;;;;;;;6.60;99.90;;;;;;5092668;28;19923;-73
2021/12/25 02:21:02;;;;;;;;;;;6.60;99.90;;;;;;5092580;28;20006;-73
2021/12/25 02:23:30;;;;;;;;;;;6.60;99.90;;;;;;5092283;28;19908;-73
2021/12/25 02:25:56;;;;;;;;;;;6.50;99.90;;;;;;5092343;28;19953;-74
2021/12/25 02:28:23;;;;;;;;;;;6.50;99.90;;;;;;5074031;28;19915;-73
2021/12/25 02:30:49;;;;;;;;;;;6.50;99.90;;;;;;5091989;28;20466;-75
2021/12/25 02:33:16;;;;;;;;;;;6.50;99.90;;;;;;5090294;28;19961;-74
2021/12/25 02:35:42;;;;;;;;;;;6.50;99.90;;;;;;5091750;28;19915;-74
2021/12/25 02:38:07;;;;;;;;;;;6.50;99.90;;;;;;5092289;28;20323;-74
2021/12/25 02:40:33;;;;;;;;;;;6.40;99.90;;;;;;5092054;28;19916;-74
2021/12/25 02:42:59;;;;;;;;;;;6.40;99.90;;;;;;5091663;28;19919;-74
2021/12/25 02:45:24;;;;;;;;;;;6.40;99.90;;;;;;5091935;28;19912;-74
2021/12/25 02:47:51;;;;;;;;;;;6.50;99.90;;;;;;5092052;28;19908;-74
2021/12/25 02:50:27;;;;;;;;;;;6.40;99.90;;;;;;5091979;28;19959;-75
2021/12/25 02:52:53;;;;;;;;;;;6.40;99.90;;;;;;5091771;28;19951;-74
2021/12/25 02:55:19;;;;;;;;;;;6.40;99.90;;;;;;5091712;28;20138;-74
2021/12/25 02:57:49;;;;;;;;;;;6.40;99.90;;;;;;5091704;28;20322;-74
2021/12/25 03:00:16;;;;;;;;;;;6.40;99.90;;;;;;5091778;28;20311;-74
2021/12/25 03:02:42;;;;;;;;;;;6.30;99.90;;;;;;5091410;28;19922;-74
2021/12/25 03:05:07;;;;;;;;;;;6.30;99.90;;;;;;5091470;28;20009;-74
2021/12/25 03:07:33;;;;;;;;;;;6.40;99.90;;;;;;5091529;28;20003;-73
2021/12/25 03:09:58;;;;;;;;;;;6.40;99.90;;;;;;5091508;28;20115;-73
2021/12/25 03:12:33;;;;;;;;;;;6.40;99.90;;;;;;5091464;28;19912;-74
2021/12/25 03:15:07;;;;;;;;;;;6.40;99.90;;;;;;5091039;28;20020;-74
2021/12/25 03:17:33;;;;;;;;;;;6.30;99.90;;;;;;5091602;28;19908;-74
2021/12/25 03:19:58;;;;;;;;;;;6.30;99.90;;;;;;5091580;28;19969;-74
2021/12/25 03:22:25;;;;;;;;;;;6.30;99.90;;;;;;5091380;28;20427;-74
2021/12/25 03:24:50;;;;;;;;;;;6.30;99.90;;;;;;5090966;28;20006;-74
2021/12/25 03:27:16;;;;;;;;;;;6.30;99.90;;;;;;5091313;28;19908;-75
2021/12/25 03:29:42;;;;;;;;;;;6.30;99.90;;;;;;5091107;28;19998;-75
2021/12/25 03:32:09;;;;;;;;;;;6.30;99.90;;;;;;5086485;28;20344;-75
2021/12/25 03:34:34;;;;;;;;;;;6.30;99.90;;;;;;5088959;28;19920;-74
2021/12/25 03:37:01;;;;;;;;;;;6.30;99.90;;;;;;5090895;28;20303;-75
2021/12/25 03:39:26;;;;;;;;;;;6.30;99.90;;;;;;5091148;28;19908;-75
2021/12/25 03:41:52;;;;;;;;;;;6.30;99.90;;;;;;5091200;28;19915;-76
2021/12/25 03:44:18;;;;;;;;;;;6.30;99.90;;;;;;5090874;28;19917;-73
2021/12/25 03:46:44;;;;;;;;;;;6.20;99.90;;;;;;5091259;28;19954;-73
2021/12/25 03:49:25;;;;;;;;;;;6.20;99.90;;;;;;5090925;28;19912;-73
2021/12/25 03:57:44;;;;;;;;;;;6.40;99.90;;;;;;5091274;28;19931;-74
2021/12/25 04:00:13;;;;;;;;;;;6.40;99.90;;;;;;5066406;28;19927;-74
2021/12/25 04:02:51;;;;;;;;;;;6.40;99.90;;;;;;5084068;28;19912;-76
2021/12/25 04:05:19;;;;;;;;;;;6.40;99.90;;;;;;5090342;28;20042;-74
2021/12/25 04:10:10;;;;;;;;;;;6.40;99.90;;;;;;5091119;28;19933;-74
2021/12/25 04:12:35;;;;;;;;;;;6.40;99.90;;;;;;5095176;28;19908;-74
2021/12/25 04:15:01;;;;;;;;;;;6.30;99.90;;;;;;5094084;28;19920;-76
2021/12/25 04:17:26;;;;;;;;;;;6.30;99.90;;;;;;5094795;28;19915;-74
2021/12/25 04:19:52;;;;;;;;;;;6.20;99.90;;;;;;5094722;28;19908;-75
2021/12/25 04:22:25;;;;;;;;;;;6.20;99.90;;;;;;5094783;28;19961;-74
2021/12/25 04:24:52;;;;;;;;;;;6.10;99.90;;;;;;5076594;28;20346;-74
2021/12/25 04:27:18;;;;;;;;;;;6.10;99.90;;;;;;5094433;28;19947;-75
2021/12/25 04:29:49;;;;;;;;;;;6.10;99.90;;;;;;5094401;28;19963;-76
2021/12/25 05:02:40;;;;;;;;;;;5.60;99.90;;;;;;5094061;28;19915;-73
2021/12/25 05:04:54;;;;;;;;;;;5.50;99.90;;;;;;5092249;28;20321;-75
2021/12/25 05:07:19;;;;;;;;;;;5.50;99.90;;;;;;5087705;28;19912;-73
2021/12/25 05:09:45;;;;;;;;;;;5.50;99.90;;;;;;5093936;28;19919;-73
2021/12/25 05:12:10;;;;;;;;;;;5.50;99.90;;;;;;5094001;28;19915;-74
2021/12/25 05:14:36;;;;;;;;;;;5.40;99.90;;;;;;5093158;28;19916;-73
2021/12/25 05:17:02;;;;;;;;;;;5.40;99.90;;;;;;5093818;28;19908;-74
2021/12/25 05:19:27;;;;;;;;;;;5.30;99.90;;;;;;5093675;28;19926;-73
2021/12/25 05:21:53;;;;;;;;;;;5.30;99.90;;;;;;5092621;28;19908;-74
2021/12/25 05:24:18;;;;;;;;;;;5.30;99.90;;;;;;5093112;28;19912;-73
2021/12/25 05:26:44;;;;;;;;;;;5.40;99.90;;;;;;5093473;28;19920;-73
2021/12/25 05:29:09;;;;;;;;;;;5.40;99.90;;;;;;5093457;28;19908;-73
2021/12/25 05:31:36;;;;;;;;;;;5.30;99.90;;;;;;5093731;28;20268;-76
2021/12/25 05:34:02;;;;;;;;;;;5.30;99.90;;;;;;5090399;28;19908;-74
2021/12/25 05:36:28;;;;;;;;;;;5.30;99.90;;;;;;5093061;28;19915;-73
2021/12/25 05:38:57;;;;;;;;;;;5.30;99.90;;;;;;5075356;28;20280;-73
2021/12/25 05:41:23;;;;;;;;;;;5.40;99.90;;;;;;5093166;28;19908;-73
2021/12/25 05:43:49;;;;;;;;;;;5.60;99.90;;;;;;5074787;28;20423;-74
2021/12/25 05:46:14;;;;;;;;;;;5.60;99.90;;;;;;5093069;28;19908;-73
2021/12/25 05:48:40;;;;;;;;;;;5.70;99.90;;;;;;5093388;28;19912;-74
2021/12/25 05:51:05;;;;;;;;;;;5.60;99.90;;;;;;5092899;28;19916;-74
2021/12/25 05:53:31;;;;;;;;;;;5.70;99.90;;;;;;5092692;28;20255;-73
2021/12/25 05:55:57;;;;;;;;;;;5.60;99.90;;;;;;5093029;28;20385;-73
2021/12/25 05:58:23;;;;;;;;;;;5.60;99.90;;;;;;5093076;28;19915;-73
2021/12/25 06:00:48;;;;;;;;;;;5.60;99.90;;;;;;5092992;28;19961;-73
2021/12/25 06:03:14;;;;;;;;;;;5.60;99.90;;;;;;5091965;28;20003;-73
2021/12/25 06:05:39;;;;;;;;;;;5.60;99.90;;;;;;5092375;28;19916;-73
2021/12/25 06:08:05;;;;;;;;;;;5.60;99.90;;;;;;5092726;28;19908;-73
2021/12/25 06:10:31;;;;;;;;;;;5.60;99.90;;;;;;5092786;28;19912;-73
2021/12/25 06:12:59;;;;;;;;;;;5.60;99.90;;;;;;5092297;28;19988;-73
2021/12/25 06:15:26;;;;;;;;;;;5.50;99.90;;;;;;5092385;28;20332;-74
2021/12/25 06:17:51;;;;;;;;;;;5.50;99.90;;;;;;5092483;28;19912;-73
2021/12/25 06:20:17;;;;;;;;;;;5.50;99.90;;;;;;5092732;28;20365;-74
2021/12/25 06:22:42;;;;;;;;;;;5.60;99.90;;;;;;5093192;28;19908;-74
2021/12/25 06:25:08;;;;;;;;;;;5.70;99.90;;;;;;5092228;28;19908;-75
2021/12/25 06:27:34;;;;;;;;;;;5.70;99.90;;;;;;5092412;28;20248;-74
2021/12/25 06:29:59;;;;;;;;;;;5.80;99.90;;;;;;5092357;28;19912;-75
2021/12/25 06:32:25;;;;;;;;;;;5.70;99.90;;;;;;5091870;28;20353;-74
2021/12/25 06:34:50;;;;;;;;;;;5.80;99.90;;;;;;5091004;28;19916;-73
2021/12/25 06:37:17;;;;;;;;;;;5.90;99.90;;;;;;5092008;28;20435;-75
2021/12/25 06:39:43;;;;;;;;;;;5.80;99.90;;;;;;5092145;28;20384;-74
2021/12/25 06:42:09;;;;;;;;;;;5.80;99.90;;;;;;5092063;28;19908;-73
2021/12/25 06:44:34;;;;;;;;;;;5.90;99.90;;;;;;5091613;28;20371;-74
2021/12/25 06:47:00;;;;;;;;;;;5.90;99.90;;;;;;5092107;28;19931;-75
2021/12/25 06:49:26;;;;;;;;;;;6.00;99.90;;;;;;5091917;28;19908;-74
2021/12/25 06:51:52;;;;;;;;;;;5.90;99.90;;;;;;5092253;28;20042;-74
2021/12/25 06:54:18;;;;;;;;;;;6.00;99.90;;;;;;5073293;28;20368;-74
2021/12/25 06:56:44;;;;;;;;;;;6.00;99.90;;;;;;5092283;28;19908;-74
2021/12/25 06:59:10;;;;;;;;;;;6.00;99.90;;;;;;5091974;28;20280;-74
2021/12/25 07:01:36;;;;;;;;;;;6.00;99.90;;;;;;5091857;28;19997;-74
2021/12/25 07:04:02;;;;;;;;;;;6.10;99.90;;;;;;5088572;28;19915;-74
2021/12/25 07:06:28;;;;;;;;;;;6.00;99.90;;;;;;5091868;28;19911;-74
2021/12/25 07:08:53;;;;;;;;;;;6.00;99.90;;;;;;5091820;28;19912;-74
2021/12/25 07:11:19;;;;;;;;;;;6.10;99.90;;;;;;5091952;28;19916;-74
2021/12/25 07:13:46;;;;;;;;;;;6.10;99.90;;;;;;5091289;28;19922;-77
2021/12/25 07:16:12;;;;;;;;;;;6.10;99.90;;;;;;5094183;28;19922;-76
2021/12/25 07:18:37;;;;;;;;;;;6.10;99.90;;;;;;5093542;28;19958;-74
2021/12/25 07:21:03;;;;;;;;;;;6.10;99.90;;;;;;5091936;28;20481;-75
2021/12/25 07:23:29;;;;;;;;;;;6.00;99.90;;;;;;5091131;28;19908;-75
2021/12/25 07:25:54;;;;;;;;;;;6.10;99.90;;;;;;5091772;28;19908;-75
2021/12/25 07:28:20;;;;;;;;;;;6.00;99.90;;;;;;5091537;28;19915;-75
2021/12/25 07:30:46;;;;;;;;;;;6.20;99.90;;;;;;5091298;28;20499;-73
2021/12/25 07:33:11;;;;;;;;;;;6.20;99.90;;;;;;5085079;28;19908;-75
2021/12/25 07:35:37;;;;;;;;;;;6.30;99.90;;;;;;5072969;28;20284;-75
2021/12/25 07:38:02;;;;;;;;;;;6.30;99.90;;;;;;5091476;28;19908;-75
2021/12/25 07:40:28;;;;;;;;;;;6.30;99.90;;;;;;5091288;28;19915;-74
2021/12/25 07:42:54;;;;;;;;;;;6.30;99.90;;;;;;5073229;28;19912;-75
2021/12/25 07:45:20;;;;;;;;;;;6.40;99.90;;;;;;5090410;28;19915;-75
2021/12/25 07:47:49;;;;;;;;;;;6.40;99.90;;;;;;5084875;28;19908;-75
2021/12/25 07:50:15;;;;;;;;;;;6.40;99.90;;;;;;5091192;28;19912;-75
2021/12/25 07:52:41;;;;;;;;;;;6.40;99.90;;;;;;5084623;28;20292;-75
2021/12/25 07:55:07;;;;;;;;;;;6.40;99.90;;;;;;5090918;28;19908;-75
2021/12/25 07:57:33;;;;;;;;;;;6.50;99.90;;;;;;5072970;28;19995;-75
2021/12/25 07:59:58;;;;;;;;;;;6.50;99.90;;;;;;5091033;28;19992;-74
2021/12/25 08:02:24;;;;;;;;;;;6.50;99.90;;;;;;5090382;28;20011;-75
2021/12/25 08:04:49;;;;;;;;;;;6.50;99.90;;;;;;5091555;28;19939;-75
2021/12/25 08:07:15;;;;;;;;;;;6.60;99.90;;;;;;5091370;28;20010;-74
2021/12/25 08:09:42;;;;;;;;;;;6.60;99.90;;;;;;5091313;28;19912;-73
2021/12/25 08:12:08;;;;;;;;;;;6.60;99.90;;;;;;5091328;28;19908;-74
2021/12/25 08:14:34;;;;;;;;;;;6.60;99.90;;;;;;5090620;28;19923;-74
2021/12/25 08:17:01;;;;;;;;;;;6.60;99.90;;;;;;5091294;28;19908;-74
2021/12/25 08:19:26;;;;;;;;;;;6.70;99.90;;;;;;5073167;28;19924;-74
2021/12/25 08:21:52;;;;;;;;;;;6.80;99.90;;;;;;5073148;28;19912;-74
2021/12/25 08:24:18;;;;;;;;;;;6.80;99.90;;;;;;5091259;28;19916;-74
2021/12/25 08:26:44;;;;;;;;;;;6.80;99.90;;;;;;5091432;28;19943;-74
2021/12/25 08:29:09;;;;;;;;;;;6.90;99.90;;;;;;5091102;28;20009;-74
2021/12/25 08:31:35;;;;;;;;;;;6.90;99.90;;;;;;5073462;28;19958;-73
2021/12/25 08:34:01;;;;;;;;;;;6.90;99.90;;;;;;5087502;28;19908;-74
2021/12/25 08:36:26;;;;;;;;;;;6.90;99.90;;;;;;5090537;28;20342;-74
2021/12/25 08:38:52;;;;;;;;;;;6.90;99.90;;;;;;5091227;28;19918;-74
2021/12/25 08:41:20;;;;;;;;;;;6.90;99.90;;;;;;5090910;28;19947;-74
2021/12/25 08:43:48;;;;;;;;;;;6.90;99.90;;;;;;5090631;28;19949;-73
2021/12/25 08:46:42;;;;;;;;;;;6.90;99.90;;;;;;5091443;28;20308;-74
2021/12/25 08:49:00;;;;;;;;;;;7.00;99.90;;;;;;5090294;28;19991;-75
2021/12/25 08:51:25;;;;;;;;;;;7.00;99.90;;;;;;5090970;28;20003;-75
2021/12/25 08:53:51;;;;;;;;;;;7.00;99.90;;;;;;5090746;28;19909;-75
2021/12/25 08:56:16;;;;;;;;;;;7.00;99.90;;;;;;5091349;28;19908;-75
2021/12/25 08:58:42;;;;;;;;;;;7.00;99.90;;;;;;5094683;28;19964;-75
2021/12/25 09:01:09;;;;;;;;;;;7.10;99.90;;;;;;5094828;28;19962;-74
2021/12/25 09:03:34;;;;;;;;;;;7.00;99.90;;;;;;5088647;28;19912;-74
2021/12/25 09:06:01;;;;;;;;;;;7.20;99.90;;;;;;5094052;28;19915;-72
2021/12/25 09:08:27;;;;;;;;;;;7.30;99.90;;;;;;5094438;28;19908;-73
2021/12/25 09:10:53;;;;;;;;;;;7.40;99.90;;;;;;5094085;28;20257;-73
2021/12/25 09:13:19;;;;;;;;;;;7.40;99.90;;;;;;5095089;28;19908;-74
2021/12/25 09:15:44;;;;;;;;;;;7.50;99.90;;;;;;5095676;28;19924;-73
2021/12/25 09:18:10;;;;;;;;;;;7.60;99.90;;;;;;5095123;28;19908;-74
2021/12/25 09:20:36;;;;;;;;;;;7.60;99.90;;;;;;5094131;28;19908;-74
2021/12/25 09:23:02;;;;;;;;;;;7.60;99.90;;;;;;5093967;28;19908;-75
2021/12/25 09:25:27;;;;;;;;;;;7.50;99.90;;;;;;5094178;28;20284;-75
2021/12/25 09:27:53;;;;;;;;;;;7.50;99.90;;;;;;5094297;28;19908;-73
2021/12/25 09:30:19;;;;;;;;;;;7.50;99.90;;;;;;5094384;28;19920;-75
2021/12/25 09:32:45;;;;;;;;;;;7.50;99.90;;;;;;5093503;28;19961;-75
2021/12/25 09:35:11;;;;;;;;;;;7.50;99.90;;;;;;5093732;28;19912;-75
2021/12/25 09:37:36;;;;;;;;;;;7.60;99.90;;;;;;5094047;28;20050;-75
2021/12/25 09:40:03;;;;;;;;;;;7.60;99.90;;;;;;5094436;28;19908;-75
2021/12/25 09:42:29;;;;;;;;;;;7.60;99.90;;;;;;5075569;28;19947;-74
2021/12/25 09:44:55;;;;;;;;;;;7.60;99.90;;;;;;5093720;28;20001;-75
2021/12/25 09:47:21;;;;;;;;;;;7.60;99.90;;;;;;5093673;28;20352;-75
2021/12/25 09:49:47;;;;;;;;;;;7.70;99.90;;;;;;5093897;28;19912;-75
2021/12/25 09:52:12;;;;;;;;;;;7.70;99.90;;;;;;5093559;28;19908;-75
2021/12/25 09:54:38;;;;;;;;;;;7.80;99.90;;;;;;5093432;28;19950;-75
2021/12/25 09:57:03;;;;;;;;;;;7.90;99.90;;;;;;5093958;28;19928;-75
2021/12/25 09:59:29;;;;;;;;;;;8.00;99.90;;;;;;5094194;28;19908;-75
2021/12/25 10:01:56;;;;;;;;;;;8.00;99.90;;;;;;5094028;28;20014;-74
2021/12/25 10:04:33;;;;;;;;;;;8.10;99.90;;;;;;5092886;28;19991;-74
2021/12/25 10:07:18;;;;;;;;;;;8.20;99.90;;;;;;5092794;28;19915;-74
2021/12/25 10:09:53;;;;;;;;;;;8.20;99.90;;;;;;5088678;28;19919;-74
2021/12/25 10:12:18;;;;;;;;;;;8.20;99.90;;;;;;5093442;28;19908;-74
2021/12/25 10:14:51;;;;;;;;;;;8.20;99.90;;;;;;5092842;28;20403;-74
2021/12/25 10:17:16;;;;;;;;;;;8.20;99.90;;;;;;5092787;28;20387;-74
2021/12/25 10:19:42;;;;;;;;;;;8.20;99.90;;;;;;5092858;28;19947;-74
2021/12/25 10:22:10;;;;;;;;;;;8.20;99.90;;;;;;5092393;28;20301;-74
2021/12/25 10:25:10;;;;;;;;;;;8.20;99.90;;;;;;5093090;28;19908;-74
2021/12/25 10:27:27;;;;;;;;;;;8.20;99.90;;;;;;5089099;28;20003;-75
2021/12/25 10:30:00;;;;;;;;;;;8.30;99.90;;;;;;5086869;28;20062;-75
2021/12/25 10:32:25;;;;;;;;;;;8.30;99.90;;;;;;5074370;28;19908;-75
2021/12/25 10:34:52;;;;;;;;;;;8.30;99.90;;;;;;5091738;28;19953;-75
2021/12/25 10:37:19;;;;;;;;;;;8.40;99.90;;;;;;5093003;28;19911;-75
2021/12/25 10:39:45;;;;;;;;;;;8.50;99.90;;;;;;5092653;28;20051;-75
2021/12/25 10:42:16;;;;;;;;;;;8.50;99.90;;;;;;5086369;28;19934;-73
2021/12/25 10:44:43;;;;;;;;;;;8.50;99.90;;;;;;5086199;28;19915;-74
2021/12/25 10:47:10;;;;;;;;;;;8.40;99.90;;;;;;5074613;28;20019;-72
2021/12/25 10:49:43;;;;;;;;;;;8.50;99.90;;;;;;5092738;28;20406;-75
2021/12/25 10:52:15;;;;;;;;;;;8.60;99.90;;;;;;5093167;28;19952;-74
2021/12/25 10:54:46;;;;;;;;;;;8.70;99.90;;;;;;5074265;28;19908;-75
2021/12/25 10:57:30;;;;;;;;;;;8.80;99.90;;;;;;5092508;28;19912;-74
2021/12/25 10:59:55;;;;;;;;;;;9.00;99.90;;;;;;5092270;28;19908;-75
2021/12/25 11:02:28;;;;;;;;;;;9.30;99.90;;;;;;5090104;28;19908;-74
2021/12/25 11:04:54;;;;;;;;;;;9.40;99.90;;;;;;5090721;28;19929;-74
2021/12/25 11:07:19;;;;;;;;;;;9.50;99.90;;;;;;5092790;28;19912;-73
2021/12/25 11:10:03;;;;;;;;;;;9.60;99.90;;;;;;5092587;28;19915;-74
2021/12/25 11:12:31;;;;;;;;;;;9.80;99.90;;;;;;5074961;28;19908;-73
2021/12/25 11:15:09;;;;;;;;;;;9.70;99.90;;;;;;5091384;28;20362;-75
2021/12/25 11:17:37;;;;;;;;;;;9.60;99.90;;;;;;5091974;28;20284;-74
2021/12/25 11:20:04;;;;;;;;;;;9.60;99.90;;;;;;5091039;28;19959;-74
2021/12/25 11:22:46;;;;;;;;;;;9.50;99.90;;;;;;5074118;28;19908;-74
2021/12/25 11:25:12;;;;;;;;;;;9.30;99.90;;;;;;5091483;28;19912;-74
2021/12/25 11:27:38;;;;;;;;;;;9.40;99.90;;;;;;5091481;28;19909;-74
2021/12/25 11:30:04;;;;;;;;;;;9.40;99.90;;;;;;5091093;28;20301;-74
2021/12/25 11:32:30;;;;;;;;;;;9.40;99.90;;;;;;5091779;28;20007;-74
2021/12/25 11:34:58;;;;;;;;;;;9.50;99.90;;;;;;5087814;28;19956;-75
2021/12/25 11:37:24;;;;;;;;;;;9.60;99.90;;;;;;5091405;28;20372;-75
2021/12/25 11:39:52;;;;;;;;;;;9.50;99.90;;;;;;5073109;28;20373;-73
2021/12/25 11:42:18;;;;;;;;;;;9.30;99.90;;;;;;5091306;28;20289;-76
2021/12/25 11:44:48;;;;;;;;;;;9.20;99.90;;;;;;5072560;28;19920;-74
2021/12/25 11:47:29;;;;;;;;;;;9.00;99.90;;;;;;5091958;28;20361;-74
2021/12/25 11:49:55;;;;;;;;;;;8.80;99.90;;;;;;5091622;28;19962;-74
2021/12/25 11:52:25;;;;;;;;;;;8.70;99.90;;;;;;5091794;28;20285;-74
2021/12/25 11:57:47;;;;;;;;;;;8.70;99.90;;;;;;5091532;28;19908;-74
2021/12/25 12:00:13;;;;;;;;;;;8.70;99.90;;;;;;5091678;28;19954;-74
2021/12/25 12:02:43;;;;;;;;;;;8.70;99.90;;;;;;5073702;28;19947;-73
2021/12/25 12:05:17;;;;;;;;;;;8.70;99.90;;;;;;5090693;28;19914;-73
2021/12/25 12:07:56;;;;;;;;;;;8.70;99.90;;;;;;5091102;28;19908;-74
2021/12/25 12:10:41;;;;;;;;;;;8.70;99.90;;;;;;5073020;28;19962;-75
2021/12/25 12:13:26;;;;;;;;;;;8.70;99.90;;;;;;5090794;28;19912;-74
2021/12/25 12:15:53;;;;;;;;;;;8.70;99.90;;;;;;5090783;28;19959;-75
2021/12/25 12:18:30;;;;;;;;;;;8.70;99.90;;;;;;5091694;28;19916;-74
2021/12/25 12:21:00;;;;;;;;;;;8.60;99.90;;;;;;5091404;28;19909;-74
2021/12/25 12:24:07;;;;;;;;;;;8.60;99.90;;;;;;5091250;28;19911;-75
2021/12/25 12:26:45;;;;;;;;;;;8.60;99.90;;;;;;5091377;28;20439;-75
2021/12/25 12:29:11;;;;;;;;;;;8.50;99.90;;;;;;5091508;28;19908;-76
2021/12/25 12:31:36;;;;;;;;;;;8.50;99.90;;;;;;5092099;28;19912;-75
2021/12/25 12:34:22;;;;;;;;;;;8.50;99.90;;;;;;5093584;28;19914;-74
2021/12/25 12:36:47;;;;;;;;;;;8.60;99.90;;;;;;5092451;28;19914;-75
2021/12/25 12:39:14;;;;;;;;;;;8.70;99.90;;;;;;5094929;28;19908;-76
2021/12/25 12:41:49;;;;;;;;;;;8.80;99.90;;;;;;5095180;28;20368;-75
2021/12/25 12:44:16;;;;;;;;;;;8.90;99.90;;;;;;5094580;28;19912;-75
2021/12/25 12:46:47;;;;;;;;;;;9.00;99.90;;;;;;5094719;28;20334;-75
2021/12/25 12:49:14;;;;;;;;;;;9.10;99.90;;;;;;5095328;28;20307;-75
2021/12/25 12:51:39;;;;;;;;;;;9.10;99.90;;;;;;5094807;28;19919;-74
2021/12/25 12:54:05;;;;;;;;;;;9.10;99.90;;;;;;5094717;28;20167;-75
2021/12/25 12:56:31;;;;;;;;;;;9.00;99.90;;;;;;5076573;28;19908;-75
2021/12/25 12:58:57;;;;;;;;;;;9.00;99.90;;;;;;5094751;28;19908;-75
2021/12/25 13:01:24;;;;;;;;;;;8.90;99.90;;;;;;5095063;28;20402;-75
2021/12/25 13:04:00;;;;;;;;;;;8.80;99.90;;;;;;5093851;28;19908;-75
2021/12/25 13:06:29;;;;;;;;;;;8.70;99.90;;;;;;5089569;28;19930;-76
2021/12/25 13:08:55;;;;;;;;;;;8.60;99.90;;;;;;5076373;28;19950;-73
2021/12/25 13:14:09;;;;;;;;;;;8.40;99.90;;;;;;5094592;28;19908;-74
2021/12/25 13:16:38;;;;;;;;;;;8.40;99.90;;;;;;5093395;28;20334;-75
2021/12/25 13:19:05;;;;;;;;;;;8.30;99.90;;;;;;5093821;28;20400;-75
2021/12/25 13:21:31;;;;;;;;;;;8.50;99.90;;;;;;5093827;28;19953;-73
2021/12/25 13:23:59;;;;;;;;;;;8.50;99.90;;;;;;5093945;28;19908;-74
2021/12/25 13:26:32;;;;;;;;;;;8.50;99.90;;;;;;5075930;28;20273;-75
2021/12/25 13:28:58;;;;;;;;;;;8.50;99.90;;;;;;5093370;28;19943;-75
2021/12/25 13:31:25;;;;;;;;;;;8.50;99.90;;;;;;5093337;28;19916;-75
2021/12/25 13:33:51;;;;;;;;;;;8.40;99.90;;;;;;5092597;28;19918;-75
2021/12/25 13:36:17;;;;;;;;;;;8.40;99.90;;;;;;5093450;28;19912;-75
2021/12/25 13:38:44;;;;;;;;;;;8.40;99.90;;;;;;5093352;28;19995;-75
2021/12/25 13:41:10;;;;;;;;;;;8.40;99.90;;;;;;5093364;28;19908;-75
2021/12/25 13:43:35;;;;;;;;;;;8.30;99.90;;;;;;5073385;28;20284;-75
2021/12/25 13:46:01;;;;;;;;;;;8.30;99.90;;;;;;5093140;28;19915;-74
2021/12/25 13:48:26;;;;;;;;;;;8.30;99.90;;;;;;5093182;28;19954;-75
2021/12/25 13:50:59;;;;;;;;;;;8.30;99.90;;;;;;5093164;28;20448;-75
2021/12/25 13:53:28;;;;;;;;;;;8.20;99.90;;;;;;5092663;28;19912;-75
2021/12/25 13:55:54;;;;;;;;;;;8.30;99.90;;;;;;5093065;28;19908;-75
2021/12/25 13:58:19;;;;;;;;;;;8.30;99.90;;;;;;5092864;28;19912;-74
2021/12/25 14:00:48;;;;;;;;;;;8.20;99.90;;;;;;5074853;28;19908;-75
2021/12/25 14:03:15;;;;;;;;;;;8.30;99.90;;;;;;5090819;28;19912;-74
2021/12/25 14:05:42;;;;;;;;;;;8.30;99.90;;;;;;5092441;28;19951;-75
2021/12/25 14:08:10;;;;;;;;;;;8.20;99.90;;;;;;5092688;28;20003;-74
2021/12/25 14:10:37;;;;;;;;;;;8.10;99.90;;;;;;5074309;28;19918;-74
2021/12/25 14:13:04;;;;;;;;;;;8.00;99.90;;;;;;5092449;28;19914;-75
2021/12/25 14:15:31;;;;;;;;;;;8.00;99.90;;;;;;5092611;28;20401;-75
2021/12/25 14:17:57;;;;;;;;;;;7.90;99.90;;;;;;5092659;28;20373;-75
2021/12/25 14:20:25;;;;;;;;;;;7.90;99.90;;;;;;5092560;28;19908;-75
2021/12/25 14:22:58;;;;;;;;;;;8.00;99.90;;;;;;5092532;28;19951;-74
2021/12/25 14:25:25;;;;;;;;;;;8.10;99.90;;;;;;5074125;28;19909;-75
2021/12/25 14:27:58;;;;;;;;;;;8.10;99.90;;;;;;5092565;28;20397;-75
2021/12/25 14:30:24;;;;;;;;;;;8.10;99.90;;;;;;5092202;28;20352;-75
2021/12/25 14:32:49;;;;;;;;;;;8.10;99.90;;;;;;5092227;28;19929;-75
2021/12/25 14:35:21;;;;;;;;;;;8.10;99.90;;;;;;5091516;28;19954;-75
2021/12/25 14:37:47;;;;;;;;;;;8.00;99.90;;;;;;5092281;28;19908;-75
2021/12/25 14:40:17;;;;;;;;;;;8.00;99.90;;;;;;5092459;28;19908;-74
2021/12/25 14:42:44;;;;;;;;;;;8.00;99.90;;;;;;5092172;28;19908;-74
2021/12/25 14:45:10;;;;;;;;;;;7.90;99.90;;;;;;5091615;28;19909;-75
2021/12/25 14:48:06;;;;;;;;;;;7.90;99.90;;;;;;5092679;28;19916;-75
2021/12/25 14:50:33;;;;;;;;;;;7.90;99.90;;;;;;5074862;28;20364;-74
2021/12/25 14:53:10;;;;;;;;;;;7.90;99.90;;;;;;5091577;28;19908;-74
2021/12/25 14:55:41;;;;;;;;;;;7.80;99.90;;;;;;5091735;28;19913;-74
2021/12/25 14:58:08;;;;;;;;;;;7.70;99.90;;;;;;5091992;28;19908;-74
2021/12/25 15:00:34;;;;;;;;;;;7.60;99.90;;;;;;5073556;28;19981;-74
2021/12/25 15:03:07;;;;;;;;;;;7.50;99.90;;;;;;5091428;28;19912;-74
2021/12/25 15:05:39;;;;;;;;;;;7.40;99.90;;;;;;5091397;28;20132;-74
2021/12/25 15:08:22;;;;;;;;;;;7.30;99.90;;;;;;5091811;28;20189;-74
2021/12/25 15:10:48;;;;;;;;;;;7.20;99.90;;;;;;5091681;28;19912;-74
2021/12/25 15:13:14;;;;;;;;;;;7.20;99.90;;;;;;5091199;28;19909;-74
2021/12/25 15:15:47;;;;;;;;;;;7.30;99.90;;;;;;5073400;28;20006;-74
2021/12/25 15:18:19;;;;;;;;;;;7.30;99.90;;;;;;5073598;28;20026;-74
2021/12/25 15:20:44;;;;;;;;;;;7.30;99.90;;;;;;5091548;28;19919;-74
2021/12/25 15:23:17;;;;;;;;;;;7.30;99.90;;;;;;5091059;28;19908;-74
2021/12/25 15:25:43;;;;;;;;;;;7.30;99.90;;;;;;5091226;28;20334;-73
2021/12/25 15:28:09;;;;;;;;;;;7.20;99.90;;;;;;5091375;28;20002;-75
2021/12/25 15:30:34;;;;;;;;;;;7.20;99.90;;;;;;5073020;28;20276;-75
2021/12/25 15:33:06;;;;;;;;;;;7.20;99.90;;;;;;5089127;28;19919;-74
2021/12/25 15:35:34;;;;;;;;;;;7.20;99.90;;;;;;5090735;28;19908;-74
2021/12/25 15:38:00;;;;;;;;;;;7.20;99.90;;;;;;5091052;28;20289;-74
2021/12/25 15:40:27;;;;;;;;;;;7.10;99.90;;;;;;5091428;28;20331;-72
2021/12/25 15:42:53;;;;;;;;;;;7.10;99.90;;;;;;5090920;28;19916;-74
2021/12/25 15:45:20;;;;;;;;;;;7.20;99.90;;;;;;5091001;28;19911;-74